Aviation Digital Data Service (ADDS)

Output produced by METARs form (1240 UTC 19 January 2019)
found at http://www.aviationweather.gov/metar/data/
 
METAR text: MMTJ 191142Z 00000KT 6SM SKC 10/10 A3024 RMK SLP241 57020 961 HZY BR
Conditions at: MMTJ (TIJUANA INTL ARP, MX) observed 1142 UTC 19 January 2019
Temperature: 10.0°C (50°F)
Dewpoint: 10.0°C (50°F) [RH = 100%]
Pressure (altimeter): 30.24 inches Hg (1024.1 mb)
[Sea-level pressure: 1024.1 mb]
Winds: calm
Visibility: 6 miles (10 km)
Ceiling: at least 12,000 feet AGL
Clouds: clear skies
Weather: no significant weather observed at this time

METAR text: MMTJ 191040Z 00000KT 5SM SKC 10/10 A3025 RMK BR
Conditions at: MMTJ (TIJUANA INTL ARP, MX) observed 1040 UTC 19 January 2019
Temperature: 10.0°C (50°F)
Dewpoint: 10.0°C (50°F) [RH = 100%]
Pressure (altimeter): 30.25 inches Hg (1024.5 mb)
Winds: calm
Visibility: 5 miles ( 8 km)
Ceiling: at least 12,000 feet AGL
Clouds: clear skies
Weather: no significant weather observed at this time

METAR text: MMTJ 190942Z 00000KT 5SM SKC 10/10 A3026 RMK BR HZ
Conditions at: MMTJ (TIJUANA INTL ARP, MX) observed 0942 UTC 19 January 2019
Temperature: 10.0°C (50°F)
Dewpoint: 10.0°C (50°F) [RH = 100%]
Pressure (altimeter): 30.26 inches Hg (1024.8 mb)
Winds: calm
Visibility: 5 miles ( 8 km)
Ceiling: at least 12,000 feet AGL
Clouds: clear skies
Weather: no significant weather observed at this time

METAR text: MMTJ 190840Z 00000KT 5SM SKC 11/10 A3027 RMK SLP261 50001 912 HZ
Conditions at: MMTJ (TIJUANA INTL ARP, MX) observed 0840 UTC 19 January 2019
Temperature: 11.0°C (52°F)
Dewpoint: 10.0°C (50°F) [RH = 94%]
Pressure (altimeter): 30.27 inches Hg (1025.1 mb)
[Sea-level pressure: 1026.1 mb]
Winds: calm
Visibility: 5 miles ( 8 km)
Ceiling: at least 12,000 feet AGL
Clouds: clear skies
Weather: no significant weather observed at this time

METAR text: MMTJ 190740Z 00000KT 5SM SKC 11/11 A3028 RMK BR HZ
Conditions at: MMTJ (TIJUANA INTL ARP, MX) observed 0740 UTC 19 January 2019
Temperature: 11.0°C (52°F)
Dewpoint: 11.0°C (52°F) [RH = 100%]
Pressure (altimeter): 30.28 inches Hg (1025.5 mb)
Winds: calm
Visibility: 5 miles ( 8 km)
Ceiling: at least 12,000 feet AGL
Clouds: clear skies
Weather: no significant weather observed at this time

METAR text: MMTJ 190642Z 00000KT 5SM SKC 12/12 A3029 RMK BR HZ
Conditions at: MMTJ (TIJUANA INTL ARP, MX) observed 0642 UTC 19 January 2019
Temperature: 12.0°C (54°F)
Dewpoint: 12.0°C (54°F) [RH = 100%]
Pressure (altimeter): 30.29 inches Hg (1025.8 mb)
Winds: calm
Visibility: 5 miles ( 8 km)
Ceiling: at least 12,000 feet AGL
Clouds: clear skies
Weather: no significant weather observed at this time

METAR text: MMTJ 190545Z 00000KT 6SM SKC 12/11 A3029 RMK SLP261 53016 917 HZY
Conditions at: MMTJ (TIJUANA INTL ARP, MX) observed 0545 UTC 19 January 2019
Temperature: 12.0°C (54°F)
Dewpoint: 11.0°C (52°F) [RH = 94%]
Pressure (altimeter): 30.29 inches Hg (1025.8 mb)
[Sea-level pressure: 1026.1 mb]
Winds: calm
Visibility: 6 miles (10 km)
Ceiling: at least 12,000 feet AGL
Clouds: clear skies
Weather: no significant weather observed at this time

METAR text: MMTJ 190444Z 00000KT 6SM SCT015 13/12 A3028 RMK 8/500 HZY
Conditions at: MMTJ (TIJUANA INTL ARP, MX) observed 0444 UTC 19 January 2019
Temperature: 13.0°C (55°F)
Dewpoint: 12.0°C (54°F) [RH = 94%]
Pressure (altimeter): 30.28 inches Hg (1025.5 mb)
Winds: calm
Visibility: 6 miles (10 km)
Ceiling: at least 12,000 feet AGL
Clouds: scattered clouds at 1500 feet AGL
Weather: no significant weather observed at this time

METAR text: MMTJ 190343Z 35004KT 6SM SCT015 14/13 A3027 RMK 8/500 HZY
Conditions at: MMTJ (TIJUANA INTL ARP, MX) observed 0343 UTC 19 January 2019
Temperature: 14.0°C (57°F)
Dewpoint: 13.0°C (55°F) [RH = 94%]
Pressure (altimeter): 30.27 inches Hg (1025.1 mb)
Winds: from the N (350 degrees) at 5 MPH (4 knots; 2.1 m/s)
Visibility: 6 miles (10 km)
Ceiling: at least 12,000 feet AGL
Clouds: scattered clouds at 1500 feet AGL
Weather: no significant weather observed at this time

METAR text: MMTJ 190246Z 27005KT 6SM FEW015 SCT200 13/12 A3025 RMK SLP246 54000 913 8/508 HZY
Conditions at: MMTJ (TIJUANA INTL ARP, MX) observed 0246 UTC 19 January 2019
Temperature: 13.0°C (55°F)
Dewpoint: 12.0°C (54°F) [RH = 94%]
Pressure (altimeter): 30.25 inches Hg (1024.5 mb)
[Sea-level pressure: 1024.6 mb]
Winds: from the W (270 degrees) at 6 MPH (5 knots; 2.6 m/s)
Visibility: 6 miles (10 km)
Ceiling: at least 12,000 feet AGL
Clouds: few clouds at 1500 feet AGL
scattered clouds at 20000 feet AGL
Weather: no significant weather observed at this time

METAR text: MMTJ 190146Z 29005KT 7SM BKN200 14/13 A3023 RMK 8/008 HZY
Conditions at: MMTJ (TIJUANA INTL ARP, MX) observed 0146 UTC 19 January 2019
Temperature: 14.0°C (57°F)
Dewpoint: 13.0°C (55°F) [RH = 94%]
Pressure (altimeter): 30.23 inches Hg (1023.8 mb)
Winds: from the WNW (290 degrees) at 6 MPH (5 knots; 2.6 m/s)
Visibility: 7 miles (11 km)
Ceiling: 20000 feet AGL
Clouds: broken clouds at 20000 feet AGL
Weather: no significant weather observed at this time

METAR text: MMTJ 190044Z 27006KT 7SM FEW030 BKN200 15/13 A3022 RMK 8/508 HZY
Conditions at: MMTJ (TIJUANA INTL ARP, MX) observed 0044 UTC 19 January 2019
Temperature: 15.0°C (59°F)
Dewpoint: 13.0°C (55°F) [RH = 88%]
Pressure (altimeter): 30.22 inches Hg (1023.5 mb)
Winds: from the W (270 degrees) at 7 MPH (6 knots; 3.1 m/s)
Visibility: 7 miles (11 km)
Ceiling: 20000 feet AGL
Clouds: few clouds at 3000 feet AGL
broken clouds at 20000 feet AGL
Weather: no significant weather observed at this time

METAR text: MMTJ 182347Z 30007KT 7SM SCT030 BKN200 16/13 A3023 RMK SLP245 52003 913 8/508 HZY
Conditions at: MMTJ (TIJUANA INTL ARP, MX) observed 2347 UTC 18 January 2019
Temperature: 16.0°C (61°F)
Dewpoint: 13.0°C (55°F) [RH = 82%]
Pressure (altimeter): 30.23 inches Hg (1023.8 mb)
[Sea-level pressure: 1024.5 mb]
Winds: from the WNW (300 degrees) at 8 MPH (7 knots; 3.6 m/s)
Visibility: 7 miles (11 km)
Ceiling: 20000 feet AGL
Clouds: scattered clouds at 3000 feet AGL
broken clouds at 20000 feet AGL
Weather: no significant weather observed at this time

METAR text: MMTJ 182241Z 29010KT 7SM SCT030 BKN200 16/13 A3023 RMK 8/508 HZY
Conditions at: MMTJ (TIJUANA INTL ARP, MX) observed 2241 UTC 18 January 2019
Temperature: 16.0°C (61°F)
Dewpoint: 13.0°C (55°F) [RH = 82%]
Pressure (altimeter): 30.23 inches Hg (1023.8 mb)
Winds: from the WNW (290 degrees) at 12 MPH (10 knots; 5.1 m/s)
Visibility: 7 miles (11 km)
Ceiling: 20000 feet AGL
Clouds: scattered clouds at 3000 feet AGL
broken clouds at 20000 feet AGL
Weather: no significant weather observed at this time

METAR text: MMTJ 182151Z 28007KT 7SM SCT030 BKN120 OVC200 16/12 A3024 RMK 8/579 HZY BINOVC
Conditions at: MMTJ (TIJUANA INTL ARP, MX) observed 2151 UTC 18 January 2019
Temperature: 16.0°C (61°F)
Dewpoint: 12.0°C (54°F) [RH = 77%]
Pressure (altimeter): 30.24 inches Hg (1024.1 mb)
Winds: from the W (280 degrees) at 8 MPH (7 knots; 3.6 m/s)
Visibility: 7 miles (11 km)
Ceiling: 12000 feet AGL
Clouds: scattered clouds at 3000 feet AGL
broken clouds at 12000 feet AGL
overcast cloud deck at 20000 feet AGL
Weather: no significant weather observed at this time

METAR text: MMTJ 182047Z 29012KT 7SM SCT030 BKN120 OVC200 16/14 A3024 RMK SLP242 57013 952 8/479 HZY BINOVC
Conditions at: MMTJ (TIJUANA INTL ARP, MX) observed 2047 UTC 18 January 2019
Temperature: 16.0°C (61°F)
Dewpoint: 14.0°C (57°F) [RH = 88%]
Pressure (altimeter): 30.24 inches Hg (1024.1 mb)
[Sea-level pressure: 1024.2 mb]
Winds: from the WNW (290 degrees) at 14 MPH (12 knots; 6.2 m/s)
Visibility: 7 miles (11 km)
Ceiling: 12000 feet AGL
Clouds: scattered clouds at 3000 feet AGL
broken clouds at 12000 feet AGL
overcast cloud deck at 20000 feet AGL
Weather: no significant weather observed at this time

METAR text: MMTJ 181948Z 23004KT 7SM BKN026 OVC120 17/13 A3026 RMK 8/47/ HZY
Conditions at: MMTJ (TIJUANA INTL ARP, MX) observed 1948 UTC 18 January 2019
Temperature: 17.0°C (63°F)
Dewpoint: 13.0°C (55°F) [RH = 77%]
Pressure (altimeter): 30.26 inches Hg (1024.8 mb)
Winds: from the SW (230 degrees) at 5 MPH (4 knots; 2.1 m/s)
Visibility: 7 miles (11 km)
Ceiling: 2600 feet AGL
Clouds: broken clouds at 2600 feet AGL
overcast cloud deck at 12000 feet AGL
Weather: no significant weather observed at this time

METAR text: MMTJ 181845Z 00000KT 7SM BKN018 BKN200 16/13 A3030 RMK 8/409 HZY
Conditions at: MMTJ (TIJUANA INTL ARP, MX) observed 1845 UTC 18 January 2019
Temperature: 16.0°C (61°F)
Dewpoint: 13.0°C (55°F) [RH = 82%]
Pressure (altimeter): 30.30 inches Hg (1026.2 mb)
Winds: calm
Visibility: 7 miles (11 km)
Ceiling: 1800 feet AGL
Clouds: broken clouds at 1800 feet AGL
broken clouds at 20000 feet AGL
Weather: no significant weather observed at this time

METAR text: MMTJ 181755Z 35003KT 5SM SCT012 BKN200 16/12 A3030 RMK SLP255 52003 903 8/409 HZY
Conditions at: MMTJ (TIJUANA INTL ARP, MX) observed 1755 UTC 18 January 2019
Temperature: 16.0°C (61°F)
Dewpoint: 12.0°C (54°F) [RH = 77%]
Pressure (altimeter): 30.30 inches Hg (1026.2 mb)
[Sea-level pressure: 1025.5 mb]
Winds: from the N (350 degrees) at 3 MPH (3 knots; 1.5 m/s)
Visibility: 5 miles ( 8 km)
Ceiling: 20000 feet AGL
Clouds: scattered clouds at 1200 feet AGL
broken clouds at 20000 feet AGL
Weather: no significant weather observed at this time

METAR text: MMTJ 181715Z 29008KT 4SM FEW006 SCT018 BKN200 15/13 A3030 RMK 8/409 HZY
Conditions at: MMTJ (TIJUANA INTL ARP, MX) observed 1715 UTC 18 January 2019
Temperature: 15.0°C (59°F)
Dewpoint: 13.0°C (55°F) [RH = 88%]
Pressure (altimeter): 30.30 inches Hg (1026.2 mb)
Winds: from the WNW (290 degrees) at 9 MPH (8 knots; 4.1 m/s)
Visibility: 4 miles ( 6 km)
Ceiling: 20000 feet AGL
Clouds: few clouds at 600 feet AGL
scattered clouds at 1800 feet AGL
broken clouds at 20000 feet AGL
Weather: no significant weather observed at this time

METAR text: MMTJ 181647Z 30005KT 3SM BR BKN006 BKN200 14/13 A3029 RMK 8/409
Conditions at: MMTJ (TIJUANA INTL ARP, MX) observed 1647 UTC 18 January 2019
Temperature: 14.0°C (57°F)
Dewpoint: 13.0°C (55°F) [RH = 94%]
Pressure (altimeter): 30.29 inches Hg (1025.8 mb)
Winds: from the WNW (300 degrees) at 6 MPH (5 knots; 2.6 m/s)
Visibility: 3 miles ( 5 km)
Ceiling: 600 feet AGL
Clouds: broken clouds at 600 feet AGL
broken clouds at 20000 feet AGL
Weather: BR  (mist)

METAR text: MMTJ 181546Z 00000KT 2SM BR FEW006 BKN026 14/14 A3029 RMK 8/400
Conditions at: MMTJ (TIJUANA INTL ARP, MX) observed 1546 UTC 18 January 2019
Temperature: 14.0°C (57°F)
Dewpoint: 14.0°C (57°F) [RH = 100%]
Pressure (altimeter): 30.29 inches Hg (1025.8 mb)
Winds: calm
Visibility: 2.00 miles (3.22 km)
Ceiling: 2600 feet AGL
Clouds: few clouds at 600 feet AGL
broken clouds at 2600 feet AGL
Weather: BR  (mist)

METAR text: MMTJ 181441Z 00000KT 3SM BR FEW006 OVC015 13/13 A3026 RMK SLP252 54001 926 8/7// BINOVC
Conditions at: MMTJ (TIJUANA INTL ARP, MX) observed 1441 UTC 18 January 2019
Temperature: 13.0°C (55°F)
Dewpoint: 13.0°C (55°F) [RH = 100%]
Pressure (altimeter): 30.26 inches Hg (1024.8 mb)
[Sea-level pressure: 1025.2 mb]
Winds: calm
Visibility: 3 miles ( 5 km)
Ceiling: 1500 feet AGL
Clouds: few clouds at 600 feet AGL
overcast cloud deck at 1500 feet AGL
Weather: BR  (mist)

METAR text: MMTJ 181350Z 00000KT 4SM OVC010 13/13 A3026 RMK 8/7// HZY BIOVC
Conditions at: MMTJ (TIJUANA INTL ARP, MX) observed 1350 UTC 18 January 2019
Temperature: 13.0°C (55°F)
Dewpoint: 13.0°C (55°F) [RH = 100%]
Pressure (altimeter): 30.26 inches Hg (1024.8 mb)
Winds: calm
Visibility: 4 miles ( 6 km)
Ceiling: 1000 feet AGL
Clouds: overcast cloud deck at 1000 feet AGL
Weather: no significant weather observed at this time

METAR text: MMTJ 181247Z 00000KT 4SM OVC010 14/14 A3026 RMK 66005 8/7//
Conditions at: MMTJ (TIJUANA INTL ARP, MX) observed 1247 UTC 18 January 2019
Temperature: 14.0°C (57°F)
Dewpoint: 14.0°C (57°F) [RH = 100%]
Pressure (altimeter): 30.26 inches Hg (1024.8 mb)
Winds: calm
Visibility: 4 miles ( 6 km)
Ceiling: 1000 feet AGL
Clouds: overcast cloud deck at 1000 feet AGL
Weather: no significant weather observed at this time

METAR text: MMTJ 181151Z 27003KT 4SM OVC010 14/14 A3026 RMK SLP251 53003 923 60015 8/7//
Conditions at: MMTJ (TIJUANA INTL ARP, MX) observed 1151 UTC 18 January 2019
Temperature: 14.0°C (57°F)
Dewpoint: 14.0°C (57°F) [RH = 100%]
Pressure (altimeter): 30.26 inches Hg (1024.8 mb)
[Sea-level pressure: 1025.1 mb]
Winds: from the W (270 degrees) at 3 MPH (3 knots; 1.5 m/s)
Visibility: 4 miles ( 6 km)
Ceiling: 1000 feet AGL
Clouds: overcast cloud deck at 1000 feet AGL
Weather: no significant weather observed at this time

METAR text: MMTJ 181043Z 28003KT 3SM -RA BR OVC010 14/14 A3024 RMK 60015 8/7// OCNL RA
Conditions at: MMTJ (TIJUANA INTL ARP, MX) observed 1043 UTC 18 January 2019
Temperature: 14.0°C (57°F)
Dewpoint: 14.0°C (57°F) [RH = 100%]
Pressure (altimeter): 30.24 inches Hg (1024.1 mb)
Winds: from the W (280 degrees) at 3 MPH (3 knots; 1.5 m/s)
Visibility: 3 miles ( 5 km)
Ceiling: 1000 feet AGL
Clouds: overcast cloud deck at 1000 feet AGL
Weather: -RA BR  (light rain, mist)

METAR text: MMTJ 180959Z RTD 00000KT 4SM OVC010 14/14 A3024 RMK 60025 8/7// OCNL RA
Conditions at: MMTJ (TIJUANA INTL ARP, MX) observed 0959 UTC 18 January 2019
Temperature: 14.0°C (57°F)
Dewpoint: 14.0°C (57°F) [RH = 100%]
Pressure (altimeter): 30.24 inches Hg (1024.1 mb)
Winds: calm
Visibility: 4 miles ( 6 km)
Ceiling: 1000 feet AGL
Clouds: overcast cloud deck at 1000 feet AGL
Weather: no significant weather observed at this time

METAR text: MMTJ 180848Z 28004KT 4SM -RA OVC010 14/14 A3025 RMK SLP248 53008 908 8/7// RA B40
Conditions at: MMTJ (TIJUANA INTL ARP, MX) observed 0848 UTC 18 January 2019
Temperature: 14.0°C (57°F)
Dewpoint: 14.0°C (57°F) [RH = 100%]
Pressure (altimeter): 30.25 inches Hg (1024.5 mb)
[Sea-level pressure: 1024.8 mb]
Winds: from the W (280 degrees) at 5 MPH (4 knots; 2.1 m/s)
Visibility: 4 miles ( 6 km)
Ceiling: 1000 feet AGL
Clouds: overcast cloud deck at 1000 feet AGL
Weather: -RA  (light rain)

METAR text: MMTJ 180745Z 25005KT 4SM OVC010 14/14 A3024 RMK 8/7// HZY BINOVC
Conditions at: MMTJ (TIJUANA INTL ARP, MX) observed 0745 UTC 18 January 2019
Temperature: 14.0°C (57°F)
Dewpoint: 14.0°C (57°F) [RH = 100%]
Pressure (altimeter): 30.24 inches Hg (1024.1 mb)
Winds: from the WSW (250 degrees) at 6 MPH (5 knots; 2.6 m/s)
Visibility: 4 miles ( 6 km)
Ceiling: 1000 feet AGL
Clouds: overcast cloud deck at 1000 feet AGL
Weather: no significant weather observed at this time

METAR text: MMTJ 180738Z 26006KT 4SM OVC010 14/14 A3025 RMK 8/7//
Conditions at: MMTJ (TIJUANA INTL ARP, MX) observed 0738 UTC 18 January 2019
Temperature: 14.0°C (57°F)
Dewpoint: 14.0°C (57°F) [RH = 100%]
Pressure (altimeter): 30.25 inches Hg (1024.5 mb)
Winds: from the W (260 degrees) at 7 MPH (6 knots; 3.1 m/s)
Visibility: 4 miles ( 6 km)
Ceiling: 1000 feet AGL
Clouds: overcast cloud deck at 1000 feet AGL
Weather: no significant weather observed at this time

METAR text: MMTJ 180712Z 27009KT 1SM -RA BR OVC004 14/14 A3025 RMK 8/7// OCNL RA
Conditions at: MMTJ (TIJUANA INTL ARP, MX) observed 0712 UTC 18 January 2019
Temperature: 14.0°C (57°F)
Dewpoint: 14.0°C (57°F) [RH = 100%]
Pressure (altimeter): 30.25 inches Hg (1024.5 mb)
Winds: from the W (270 degrees) at 10 MPH (9 knots; 4.6 m/s)
Visibility: 1.00 miles (1.61 km)
Ceiling: 400 feet AGL
Clouds: overcast cloud deck at 400 feet AGL
Weather: -RA BR  (light rain, mist)

METAR text: MMTJ 180641Z 27007KT 1SM -RA BR OVC004 15/15 A3023 RMK 60015 8/7// OCNL RA
Conditions at: MMTJ (TIJUANA INTL ARP, MX) observed 0641 UTC 18 January 2019
Temperature: 15.0°C (59°F)
Dewpoint: 15.0°C (59°F) [RH = 100%]
Pressure (altimeter): 30.23 inches Hg (1023.8 mb)
Winds: from the W (270 degrees) at 8 MPH (7 knots; 3.6 m/s)
Visibility: 1.00 miles (1.61 km)
Ceiling: 400 feet AGL
Clouds: overcast cloud deck at 400 feet AGL
Weather: -RA BR  (light rain, mist)

METAR text: MMTJ 180547Z 26006KT 1 1/2SM -RA BR OVC006 15/15 A3023 RMK SLP244 51012 951 60025 8/7//
Conditions at: MMTJ (TIJUANA INTL ARP, MX) observed 0547 UTC 18 January 2019
Temperature: 15.0°C (59°F)
Dewpoint: 15.0°C (59°F) [RH = 100%]
Pressure (altimeter): 30.23 inches Hg (1023.8 mb)
[Sea-level pressure: 1024.4 mb]
Winds: from the W (260 degrees) at 7 MPH (6 knots; 3.1 m/s)
Visibility: 1.50 miles (2.41 km)
Ceiling: 600 feet AGL
Clouds: overcast cloud deck at 600 feet AGL
Weather: -RA BR  (light rain, mist)

METAR text: MMTJ 180441Z 27008KT 1 1/2SM -RA BR OVC006 15/15 A3023 RMK 8/7// -RAB40
Conditions at: MMTJ (TIJUANA INTL ARP, MX) observed 0441 UTC 18 January 2019
Temperature: 15.0°C (59°F)
Dewpoint: 15.0°C (59°F) [RH = 100%]
Pressure (altimeter): 30.23 inches Hg (1023.8 mb)
Winds: from the W (270 degrees) at 9 MPH (8 knots; 4.1 m/s)
Visibility: 1.50 miles (2.41 km)
Ceiling: 600 feet AGL
Clouds: overcast cloud deck at 600 feet AGL
Weather: -RA BR  (light rain, mist)

METAR text: MMTJ 180341Z 27008KT 3SM BR OVC006 15/15 A3023 RMK 60035 8/7// -RAE35
Conditions at: MMTJ (TIJUANA INTL ARP, MX) observed 0341 UTC 18 January 2019
Temperature: 15.0°C (59°F)
Dewpoint: 15.0°C (59°F) [RH = 100%]
Pressure (altimeter): 30.23 inches Hg (1023.8 mb)
Winds: from the W (270 degrees) at 9 MPH (8 knots; 4.1 m/s)
Visibility: 3 miles ( 5 km)
Ceiling: 600 feet AGL
Clouds: overcast cloud deck at 600 feet AGL
Weather: BR  (mist)

METAR text: MMTJ 180249Z 28009KT 1 1/2SM -RA OVC006 16/15 A3024 RMK SLP231 54000 903 60075 8/7//
Conditions at: MMTJ (TIJUANA INTL ARP, MX) observed 0249 UTC 18 January 2019
Temperature: 16.0°C (61°F)
Dewpoint: 15.0°C (59°F) [RH = 94%]
Pressure (altimeter): 30.24 inches Hg (1024.1 mb)
[Sea-level pressure: 1023.1 mb]
Winds: from the W (280 degrees) at 10 MPH (9 knots; 4.6 m/s)
Visibility: 1.50 miles (2.41 km)
Ceiling: 600 feet AGL
Clouds: overcast cloud deck at 600 feet AGL
Weather: -RA  (light rain)

METAR text: MMTJ 180143Z 25005KT 2SM -RA OVC006 15/14 A3023 RMK 60055 8/7//
Conditions at: MMTJ (TIJUANA INTL ARP, MX) observed 0143 UTC 18 January 2019
Temperature: 15.0°C (59°F)
Dewpoint: 14.0°C (57°F) [RH = 94%]
Pressure (altimeter): 30.23 inches Hg (1023.8 mb)
Winds: from the WSW (250 degrees) at 6 MPH (5 knots; 2.6 m/s)
Visibility: 2.00 miles (3.22 km)
Ceiling: 600 feet AGL
Clouds: overcast cloud deck at 600 feet AGL
Weather: -RA  (light rain)

METAR text: MMTJ 180046Z 23005KT 2SM -RA OVC006 16/15 A3022 RMK 60045 8/7//
Conditions at: MMTJ (TIJUANA INTL ARP, MX) observed 0046 UTC 18 January 2019
Temperature: 16.0°C (61°F)
Dewpoint: 15.0°C (59°F) [RH = 94%]
Pressure (altimeter): 30.22 inches Hg (1023.5 mb)
Winds: from the SW (230 degrees) at 6 MPH (5 knots; 2.6 m/s)
Visibility: 2.00 miles (3.22 km)
Ceiling: 600 feet AGL
Clouds: overcast cloud deck at 600 feet AGL
Weather: -RA  (light rain)

Forecast for: MMTJ (TIJUANA INTL ARP, MX)
Text: TAF MMTJ 191144Z 1912/2018 36005KT 5SM HZ SKC TX20/1920Z TN09/1912Z
Forecast period: 1200 to 1500 UTC 19 January 2019
Forecast type: FROM: standard forecast or significant change
Winds: from the N (360 degrees) at 6 MPH (5 knots; 2.6 m/s)
Visibility: 5 miles (8 km)
Clouds: clear skies
Weather: HZ  (haze)
Text: FM191500 30010KT P6SM SCT250
Forecast period: 1500 to 2000 UTC 19 January 2019
Forecast type: FROM: standard forecast or significant change
Winds: from the WNW (300 degrees) at 12 MPH (10 knots; 5.1 m/s)
Visibility: 6 or more miles 10+ km)
Ceiling: at least 12,000 feet AGL
Clouds: scattered clouds at 25000 feet AGL
Weather: no significant weather forecast for this period
Text: FM192000 30010KT P6SM BKN250
Forecast period: 2000 UTC 19 January 2019 to 0200 UTC 20 January 2019
Forecast type: FROM: standard forecast or significant change
Winds: from the WNW (300 degrees) at 12 MPH (10 knots; 5.1 m/s)
Visibility: 6 or more miles 10+ km)
Ceiling: 25000 feet AGL
Clouds: broken clouds at 25000 feet AGL
Weather: no significant weather forecast for this period
Text: FM200200 30005KT 6SM HZ BKN250
Forecast period: 0200 to 1500 UTC 20 January 2019
Forecast type: FROM: standard forecast or significant change
Winds: from the WNW (300 degrees) at 6 MPH (5 knots; 2.6 m/s)
Visibility: 6 miles (10 km)
Ceiling: 25000 feet AGL
Clouds: broken clouds at 25000 feet AGL
Weather: HZ  (haze)
Text: FM201500 30010KT P6SM SCT250
Forecast period: 1500 to 1800 UTC 20 January 2019
Forecast type: FROM: standard forecast or significant change
Winds: from the WNW (300 degrees) at 12 MPH (10 knots; 5.1 m/s)
Visibility: 6 or more miles 10+ km)
Ceiling: at least 12,000 feet AGL
Clouds: scattered clouds at 25000 feet AGL
Weather: no significant weather forecast for this period